sensor_id;sensor_type;location;lat;lon;timestamp;P1;durP1;ratioP1;P2;durP2;ratioP2
71916;SDS011;59793;46.506;6.674;2023-02-15T00:01:11;37.85;;;25.55;;
71916;SDS011;59793;46.506;6.674;2023-02-15T00:03:37;36.83;;;23.55;;
71916;SDS011;59793;46.506;6.674;2023-02-15T00:06:03;36.33;;;20.90;;
71916;SDS011;59793;46.506;6.674;2023-02-15T00:11:05;34.63;;;21.02;;
71916;SDS011;59793;46.506;6.674;2023-02-15T00:13:30;29.02;;;18.60;;
71916;SDS011;59793;46.506;6.674;2023-02-15T00:16:00;32.88;;;19.65;;
71916;SDS011;59793;46.506;6.674;2023-02-15T00:18:29;29.13;;;19.15;;
71916;SDS011;59793;46.506;6.674;2023-02-15T00:20:54;27.65;;;18.52;;
71916;SDS011;59793;46.506;6.674;2023-02-15T00:23:20;42.20;;;22.33;;
71916;SDS011;59793;46.506;6.674;2023-02-15T00:25:45;40.55;;;24.48;;
71916;SDS011;59793;46.506;6.674;2023-02-15T00:28:11;35.88;;;24.60;;
71916;SDS011;59793;46.506;6.674;2023-02-15T00:30:36;35.80;;;20.73;;
71916;SDS011;59793;46.506;6.674;2023-02-15T00:33:02;34.40;;;18.58;;
71916;SDS011;59793;46.506;6.674;2023-02-15T00:35:27;32.22;;;21.08;;
71916;SDS011;59793;46.506;6.674;2023-02-15T00:37:52;29.88;;;19.38;;
71916;SDS011;59793;46.506;6.674;2023-02-15T00:40:18;39.25;;;21.88;;
71916;SDS011;59793;46.506;6.674;2023-02-15T00:42:43;39.47;;;22.75;;
71916;SDS011;59793;46.506;6.674;2023-02-15T00:45:09;36.97;;;24.35;;
71916;SDS011;59793;46.506;6.674;2023-02-15T00:47:34;45.47;;;29.73;;
71916;SDS011;59793;46.506;6.674;2023-02-15T00:50:00;41.08;;;25.33;;
71916;SDS011;59793;46.506;6.674;2023-02-15T00:52:25;37.70;;;25.75;;
71916;SDS011;59793;46.506;6.674;2023-02-15T00:54:50;36.45;;;23.50;;
71916;SDS011;59793;46.506;6.674;2023-02-15T00:57:16;42.30;;;26.98;;
71916;SDS011;59793;46.506;6.674;2023-02-15T00:59:41;30.15;;;18.15;;
71916;SDS011;59793;46.506;6.674;2023-02-15T01:02:07;40.22;;;25.92;;
71916;SDS011;59793;46.506;6.674;2023-02-15T01:04:32;40.20;;;26.48;;
71916;SDS011;59793;46.506;6.674;2023-02-15T01:06:57;42.78;;;27.13;;
71916;SDS011;59793;46.506;6.674;2023-02-15T01:09:23;41.83;;;25.75;;
71916;SDS011;59793;46.506;6.674;2023-02-15T01:11:48;38.03;;;24.08;;
71916;SDS011;59793;46.506;6.674;2023-02-15T01:14:13;37.65;;;22.15;;
71916;SDS011;59793;46.506;6.674;2023-02-15T01:16:39;34.55;;;22.65;;
71916;SDS011;59793;46.506;6.674;2023-02-15T01:19:05;42.65;;;25.20;;
71916;SDS011;59793;46.506;6.674;2023-02-15T01:21:31;39.63;;;25.23;;
71916;SDS011;59793;46.506;6.674;2023-02-15T01:23:59;43.53;;;27.63;;
71916;SDS011;59793;46.506;6.674;2023-02-15T01:26:25;45.97;;;29.33;;
71916;SDS011;59793;46.506;6.674;2023-02-15T01:28:50;42.55;;;29.02;;
71916;SDS011;59793;46.506;6.674;2023-02-15T01:31:17;51.78;;;31.90;;
71916;SDS011;59793;46.506;6.674;2023-02-15T01:33:45;52.13;;;32.85;;
71916;SDS011;59793;46.506;6.674;2023-02-15T01:38:37;47.75;;;30.60;;
71916;SDS011;59793;46.506;6.674;2023-02-15T01:41:02;54.22;;;34.97;;
71916;SDS011;59793;46.506;6.674;2023-02-15T01:43:48;51.03;;;32.28;;
71916;SDS011;59793;46.506;6.674;2023-02-15T01:46:22;51.55;;;31.77;;
71916;SDS011;59793;46.506;6.674;2023-02-15T01:48:54;47.20;;;29.95;;
71916;SDS011;59793;46.506;6.674;2023-02-15T01:51:25;46.40;;;29.92;;
71916;SDS011;59793;46.506;6.674;2023-02-15T01:53:54;40.03;;;27.05;;
71916;SDS011;59793;46.506;6.674;2023-02-15T01:56:29;42.40;;;29.58;;
71916;SDS011;59793;46.506;6.674;2023-02-15T01:58:59;47.60;;;28.40;;
71916;SDS011;59793;46.506;6.674;2023-02-15T02:01:28;47.97;;;30.40;;
71916;SDS011;59793;46.506;6.674;2023-02-15T02:03:59;51.97;;;29.13;;
71916;SDS011;59793;46.506;6.674;2023-02-15T02:06:27;46.45;;;26.45;;
71916;SDS011;59793;46.506;6.674;2023-02-15T02:08:53;46.60;;;28.10;;
71916;SDS011;59793;46.506;6.674;2023-02-15T02:11:19;40.53;;;25.83;;
71916;SDS011;59793;46.506;6.674;2023-02-15T02:13:45;46.25;;;30.00;;
71916;SDS011;59793;46.506;6.674;2023-02-15T02:36:06;43.45;;;27.23;;
71916;SDS011;59793;46.506;6.674;2023-02-15T02:41:41;43.38;;;28.27;;
71916;SDS011;59793;46.506;6.674;2023-02-15T02:46:53;47.60;;;29.42;;
71916;SDS011;59793;46.506;6.674;2023-02-15T02:49:30;44.22;;;28.45;;
71916;SDS011;59793;46.506;6.674;2023-02-15T02:51:59;45.45;;;28.60;;
71916;SDS011;59793;46.506;6.674;2023-02-15T02:54:25;45.28;;;28.15;;
71916;SDS011;59793;46.506;6.674;2023-02-15T02:56:52;46.85;;;30.45;;
71916;SDS011;59793;46.506;6.674;2023-02-15T02:59:25;48.50;;;29.90;;
71916;SDS011;59793;46.506;6.674;2023-02-15T03:02:10;41.03;;;28.98;;
71916;SDS011;59793;46.506;6.674;2023-02-15T03:04:42;37.85;;;25.33;;
71916;SDS011;59793;46.506;6.674;2023-02-15T03:07:14;36.90;;;24.55;;
71916;SDS011;59793;46.506;6.674;2023-02-15T03:09:47;38.85;;;25.23;;
71916;SDS011;59793;46.506;6.674;2023-02-15T03:14:45;37.85;;;24.80;;
71916;SDS011;59793;46.506;6.674;2023-02-15T03:17:19;39.15;;;23.38;;
71916;SDS011;59793;46.506;6.674;2023-02-15T03:19:47;40.60;;;28.20;;
71916;SDS011;59793;46.506;6.674;2023-02-15T03:22:21;44.53;;;28.67;;
71916;SDS011;59793;46.506;6.674;2023-02-15T03:25:14;49.28;;;29.58;;
71916;SDS011;59793;46.506;6.674;2023-02-15T03:27:46;47.28;;;28.90;;
71916;SDS011;59793;46.506;6.674;2023-02-15T03:30:15;49.83;;;31.20;;
71916;SDS011;59793;46.506;6.674;2023-02-15T03:32:44;43.63;;;30.00;;
71916;SDS011;59793;46.506;6.674;2023-02-15T03:35:12;45.92;;;31.40;;
71916;SDS011;59793;46.506;6.674;2023-02-15T03:37:48;45.15;;;27.85;;
71916;SDS011;59793;46.506;6.674;2023-02-15T03:40:27;39.28;;;27.67;;
71916;SDS011;59793;46.506;6.674;2023-02-15T03:45:45;44.15;;;29.30;;
71916;SDS011;59793;46.506;6.674;2023-02-15T03:48:29;45.78;;;27.70;;
71916;SDS011;59793;46.506;6.674;2023-02-15T03:51:00;42.47;;;26.42;;
71916;SDS011;59793;46.506;6.674;2023-02-15T03:53:48;49.47;;;30.33;;
71916;SDS011;59793;46.506;6.674;2023-02-15T03:56:17;52.65;;;32.08;;
71916;SDS011;59793;46.506;6.674;2023-02-15T03:58:42;43.95;;;28.13;;
71916;SDS011;59793;46.506;6.674;2023-02-15T04:04:23;49.70;;;31.30;;
71916;SDS011;59793;46.506;6.674;2023-02-15T04:06:51;45.58;;;31.27;;
71916;SDS011;59793;46.506;6.674;2023-02-15T04:09:17;47.53;;;31.40;;
71916;SDS011;59793;46.506;6.674;2023-02-15T04:12:01;56.33;;;33.80;;
71916;SDS011;59793;46.506;6.674;2023-02-15T04:14:26;49.65;;;33.63;;
71916;SDS011;59793;46.506;6.674;2023-02-15T04:17:10;46.47;;;31.10;;
71916;SDS011;59793;46.506;6.674;2023-02-15T04:19:35;54.03;;;33.58;;
71916;SDS011;59793;46.506;6.674;2023-02-15T04:22:19;52.40;;;34.03;;
71916;SDS011;59793;46.506;6.674;2023-02-15T04:25:04;53.55;;;33.80;;
71916;SDS011;59793;46.506;6.674;2023-02-15T04:27:36;47.15;;;31.67;;
71916;SDS011;59793;46.506;6.674;2023-02-15T04:30:02;47.28;;;29.25;;
71916;SDS011;59793;46.506;6.674;2023-02-15T04:32:28;30.33;;;19.40;;
71916;SDS011;59793;46.506;6.674;2023-02-15T04:34:54;37.95;;;23.90;;
71916;SDS011;59793;46.506;6.674;2023-02-15T04:37:19;37.72;;;23.70;;
71916;SDS011;59793;46.506;6.674;2023-02-15T04:39:44;36.88;;;22.48;;
71916;SDS011;59793;46.506;6.674;2023-02-15T04:42:10;34.30;;;21.13;;
71916;SDS011;59793;46.506;6.674;2023-02-15T04:44:35;36.50;;;21.50;;
71916;SDS011;59793;46.506;6.674;2023-02-15T04:47:00;37.85;;;21.65;;
71916;SDS011;59793;46.506;6.674;2023-02-15T04:49:26;30.25;;;18.90;;
71916;SDS011;59793;46.506;6.674;2023-02-15T04:51:51;33.53;;;19.98;;
71916;SDS011;59793;46.506;6.674;2023-02-15T04:54:16;41.15;;;27.80;;
71916;SDS011;59793;46.506;6.674;2023-02-15T04:56:42;48.08;;;30.38;;
71916;SDS011;59793;46.506;6.674;2023-02-15T04:59:09;46.15;;;30.48;;
71916;SDS011;59793;46.506;6.674;2023-02-15T05:01:36;43.30;;;27.45;;
71916;SDS011;59793;46.506;6.674;2023-02-15T05:04:01;49.40;;;28.05;;
71916;SDS011;59793;46.506;6.674;2023-02-15T05:06:27;37.08;;;24.27;;
71916;SDS011;59793;46.506;6.674;2023-02-15T05:08:53;39.28;;;25.52;;
71916;SDS011;59793;46.506;6.674;2023-02-15T05:11:18;34.80;;;22.90;;
71916;SDS011;59793;46.506;6.674;2023-02-15T05:13:44;37.67;;;23.88;;
71916;SDS011;59793;46.506;6.674;2023-02-15T05:16:09;40.17;;;24.90;;
71916;SDS011;59793;46.506;6.674;2023-02-15T05:18:34;35.78;;;22.67;;
71916;SDS011;59793;46.506;6.674;2023-02-15T05:21:00;35.00;;;23.00;;
71916;SDS011;59793;46.506;6.674;2023-02-15T05:23:25;34.85;;;22.48;;
71916;SDS011;59793;46.506;6.674;2023-02-15T05:25:50;39.92;;;24.92;;
71916;SDS011;59793;46.506;6.674;2023-02-15T05:28:35;36.75;;;24.40;;
71916;SDS011;59793;46.506;6.674;2023-02-15T05:33:27;50.22;;;29.38;;
71916;SDS011;59793;46.506;6.674;2023-02-15T05:35:52;41.38;;;25.67;;
71916;SDS011;59793;46.506;6.674;2023-02-15T05:38:18;46.22;;;26.48;;
71916;SDS011;59793;46.506;6.674;2023-02-15T05:40:43;41.22;;;26.10;;
71916;SDS011;59793;46.506;6.674;2023-02-15T05:43:08;40.10;;;25.35;;
71916;SDS011;59793;46.506;6.674;2023-02-15T05:45:34;49.25;;;26.70;;
71916;SDS011;59793;46.506;6.674;2023-02-15T05:47:59;42.08;;;25.75;;
71916;SDS011;59793;46.506;6.674;2023-02-15T05:50:25;39.10;;;25.70;;
71916;SDS011;59793;46.506;6.674;2023-02-15T05:52:51;35.25;;;22.80;;
71916;SDS011;59793;46.506;6.674;2023-02-15T05:55:17;36.40;;;21.02;;
71916;SDS011;59793;46.506;6.674;2023-02-15T05:57:42;36.78;;;20.63;;
71916;SDS011;59793;46.506;6.674;2023-02-15T06:00:07;36.30;;;22.15;;
71916;SDS011;59793;46.506;6.674;2023-02-15T06:02:35;36.85;;;21.33;;
71916;SDS011;59793;46.506;6.674;2023-02-15T06:05:01;35.67;;;22.27;;
71916;SDS011;59793;46.506;6.674;2023-02-15T06:07:28;34.95;;;21.55;;
71916;SDS011;59793;46.506;6.674;2023-02-15T06:09:53;38.00;;;22.60;;
71916;SDS011;59793;46.506;6.674;2023-02-15T06:12:19;40.65;;;25.10;;
71916;SDS011;59793;46.506;6.674;2023-02-15T06:14:44;44.05;;;27.38;;
71916;SDS011;59793;46.506;6.674;2023-02-15T06:17:09;45.10;;;27.33;;
71916;SDS011;59793;46.506;6.674;2023-02-15T06:19:35;47.00;;;28.17;;
71916;SDS011;59793;46.506;6.674;2023-02-15T06:22:00;49.75;;;28.90;;
71916;SDS011;59793;46.506;6.674;2023-02-15T06:24:25;51.03;;;32.72;;
71916;SDS011;59793;46.506;6.674;2023-02-15T06:26:51;46.25;;;28.70;;
71916;SDS011;59793;46.506;6.674;2023-02-15T06:29:16;41.67;;;25.75;;
71916;SDS011;59793;46.506;6.674;2023-02-15T06:31:41;39.08;;;22.08;;
71916;SDS011;59793;46.506;6.674;2023-02-15T06:34:07;40.53;;;24.83;;
71916;SDS011;59793;46.506;6.674;2023-02-15T06:36:33;33.97;;;22.13;;
71916;SDS011;59793;46.506;6.674;2023-02-15T06:38:58;47.22;;;27.83;;
71916;SDS011;59793;46.506;6.674;2023-02-15T06:41:24;41.30;;;26.00;;
71916;SDS011;59793;46.506;6.674;2023-02-15T06:43:49;43.38;;;26.85;;
71916;SDS011;59793;46.506;6.674;2023-02-15T06:46:15;50.55;;;30.98;;
71916;SDS011;59793;46.506;6.674;2023-02-15T06:48:41;53.72;;;31.05;;
71916;SDS011;59793;46.506;6.674;2023-02-15T06:51:06;59.33;;;32.25;;
71916;SDS011;59793;46.506;6.674;2023-02-15T06:53:33;50.40;;;30.00;;
71916;SDS011;59793;46.506;6.674;2023-02-15T06:56:06;39.70;;;26.58;;
71916;SDS011;59793;46.506;6.674;2023-02-15T06:58:34;38.90;;;25.65;;
71916;SDS011;59793;46.506;6.674;2023-02-15T07:01:06;41.90;;;25.80;;
71916;SDS011;59793;46.506;6.674;2023-02-15T07:03:33;43.30;;;25.88;;
71916;SDS011;59793;46.506;6.674;2023-02-15T07:06:00;40.85;;;26.10;;
71916;SDS011;59793;46.506;6.674;2023-02-15T07:08:27;40.22;;;25.75;;
71916;SDS011;59793;46.506;6.674;2023-02-15T07:10:52;49.80;;;27.65;;
71916;SDS011;59793;46.506;6.674;2023-02-15T07:13:19;35.30;;;20.45;;
71916;SDS011;59793;46.506;6.674;2023-02-15T07:15:47;43.50;;;27.80;;
71916;SDS011;59793;46.506;6.674;2023-02-15T07:18:13;49.47;;;27.88;;
71916;SDS011;59793;46.506;6.674;2023-02-15T07:20:38;45.22;;;29.38;;
71916;SDS011;59793;46.506;6.674;2023-02-15T07:23:06;47.95;;;28.17;;
71916;SDS011;59793;46.506;6.674;2023-02-15T07:25:33;47.80;;;29.95;;
71916;SDS011;59793;46.506;6.674;2023-02-15T07:27:59;33.63;;;21.13;;
71916;SDS011;59793;46.506;6.674;2023-02-15T07:30:28;47.03;;;28.63;;
71916;SDS011;59793;46.506;6.674;2023-02-15T07:32:57;49.25;;;30.40;;
71916;SDS011;59793;46.506;6.674;2023-02-15T07:35:51;45.17;;;28.55;;
71916;SDS011;59793;46.506;6.674;2023-02-15T07:38:23;44.28;;;27.42;;
71916;SDS011;59793;46.506;6.674;2023-02-15T07:40:49;40.20;;;26.00;;
71916;SDS011;59793;46.506;6.674;2023-02-15T07:43:14;44.05;;;29.52;;
71916;SDS011;59793;46.506;6.674;2023-02-15T07:45:40;54.72;;;32.25;;
71916;SDS011;59793;46.506;6.674;2023-02-15T07:48:05;46.63;;;29.35;;
71916;SDS011;59793;46.506;6.674;2023-02-15T07:50:31;49.75;;;28.95;;
71916;SDS011;59793;46.506;6.674;2023-02-15T07:52:57;42.13;;;27.83;;
71916;SDS011;59793;46.506;6.674;2023-02-15T07:55:22;39.45;;;26.67;;
71916;SDS011;59793;46.506;6.674;2023-02-15T07:57:49;44.33;;;27.33;;
71916;SDS011;59793;46.506;6.674;2023-02-15T08:00:15;41.15;;;26.88;;
71916;SDS011;59793;46.506;6.674;2023-02-15T08:02:47;46.33;;;30.33;;
71916;SDS011;59793;46.506;6.674;2023-02-15T08:05:14;43.15;;;28.77;;
71916;SDS011;59793;46.506;6.674;2023-02-15T08:07:39;41.95;;;28.67;;
71916;SDS011;59793;46.506;6.674;2023-02-15T08:10:04;42.42;;;28.27;;
71916;SDS011;59793;46.506;6.674;2023-02-15T08:12:30;42.78;;;27.17;;
71916;SDS011;59793;46.506;6.674;2023-02-15T08:14:56;45.35;;;31.00;;
71916;SDS011;59793;46.506;6.674;2023-02-15T08:17:21;44.63;;;29.63;;
71916;SDS011;59793;46.506;6.674;2023-02-15T08:19:46;44.60;;;28.25;;
71916;SDS011;59793;46.506;6.674;2023-02-15T08:22:13;45.92;;;31.30;;
71916;SDS011;59793;46.506;6.674;2023-02-15T08:24:39;46.05;;;28.17;;
71916;SDS011;59793;46.506;6.674;2023-02-15T08:27:09;42.25;;;28.73;;
71916;SDS011;59793;46.506;6.674;2023-02-15T08:29:36;45.42;;;29.65;;
71916;SDS011;59793;46.506;6.674;2023-02-15T08:32:03;41.92;;;29.23;;
71916;SDS011;59793;46.506;6.674;2023-02-15T08:34:35;46.72;;;31.33;;
71916;SDS011;59793;46.506;6.674;2023-02-15T08:37:02;44.17;;;30.27;;
71916;SDS011;59793;46.506;6.674;2023-02-15T08:39:28;48.13;;;31.35;;
71916;SDS011;59793;46.506;6.674;2023-02-15T08:41:53;41.92;;;28.75;;
71916;SDS011;59793;46.506;6.674;2023-02-15T08:44:19;35.88;;;25.27;;
71916;SDS011;59793;46.506;6.674;2023-02-15T08:46:45;40.33;;;28.53;;
71916;SDS011;59793;46.506;6.674;2023-02-15T08:49:14;39.60;;;28.98;;
71916;SDS011;59793;46.506;6.674;2023-02-15T08:51:41;44.55;;;28.38;;
71916;SDS011;59793;46.506;6.674;2023-02-15T08:54:08;48.35;;;29.15;;
71916;SDS011;59793;46.506;6.674;2023-02-15T08:56:37;43.65;;;29.00;;
71916;SDS011;59793;46.506;6.674;2023-02-15T08:59:05;49.58;;;30.75;;
71916;SDS011;59793;46.506;6.674;2023-02-15T09:01:32;42.38;;;28.50;;
71916;SDS011;59793;46.506;6.674;2023-02-15T09:04:03;42.10;;;26.48;;
71916;SDS011;59793;46.506;6.674;2023-02-15T09:06:30;37.15;;;26.25;;
71916;SDS011;59793;46.506;6.674;2023-02-15T09:08:56;39.72;;;26.25;;
71916;SDS011;59793;46.506;6.674;2023-02-15T09:11:23;42.17;;;27.35;;
71916;SDS011;59793;46.506;6.674;2023-02-15T09:13:56;45.75;;;27.92;;
71916;SDS011;59793;46.506;6.674;2023-02-15T09:16:25;44.60;;;27.48;;
71916;SDS011;59793;46.506;6.674;2023-02-15T09:18:53;41.42;;;27.65;;
71916;SDS011;59793;46.506;6.674;2023-02-15T09:21:19;39.17;;;27.58;;
71916;SDS011;59793;46.506;6.674;2023-02-15T09:23:47;44.85;;;28.27;;
71916;SDS011;59793;46.506;6.674;2023-02-15T09:26:15;41.78;;;29.52;;
71916;SDS011;59793;46.506;6.674;2023-02-15T09:28:43;38.45;;;26.95;;
71916;SDS011;59793;46.506;6.674;2023-02-15T09:31:15;43.55;;;28.95;;
71916;SDS011;59793;46.506;6.674;2023-02-15T09:33:45;40.07;;;27.67;;
71916;SDS011;59793;46.506;6.674;2023-02-15T09:36:14;40.35;;;27.05;;
71916;SDS011;59793;46.506;6.674;2023-02-15T09:38:41;46.10;;;30.33;;
71916;SDS011;59793;46.506;6.674;2023-02-15T09:43:51;47.85;;;30.60;;
71916;SDS011;59793;46.506;6.674;2023-02-15T09:46:24;48.65;;;29.77;;
71916;SDS011;59793;46.506;6.674;2023-02-15T09:48:55;48.63;;;30.83;;
71916;SDS011;59793;46.506;6.674;2023-02-15T09:54:27;47.37;;;30.73;;
71916;SDS011;59793;46.506;6.674;2023-02-15T09:57:10;39.63;;;26.85;;
71916;SDS011;59793;46.506;6.674;2023-02-15T10:11:01;49.38;;;33.08;;
71916;SDS011;59793;46.506;6.674;2023-02-15T10:14:01;43.00;;;30.63;;
71916;SDS011;59793;46.506;6.674;2023-02-15T10:24:58;46.30;;;31.48;;
71916;SDS011;59793;46.506;6.674;2023-02-15T10:27:40;46.30;;;30.70;;
71916;SDS011;59793;46.506;6.674;2023-02-15T10:30:13;44.50;;;30.90;;
71916;SDS011;59793;46.506;6.674;2023-02-15T10:35:42;47.75;;;32.03;;
71916;SDS011;59793;46.506;6.674;2023-02-15T10:38:25;48.85;;;32.28;;
71916;SDS011;59793;46.506;6.674;2023-02-15T10:58:45;44.65;;;31.02;;
71916;SDS011;59793;46.506;6.674;2023-02-15T11:01:44;47.85;;;33.40;;
71916;SDS011;59793;46.506;6.674;2023-02-15T11:10:11;45.10;;;30.45;;
71916;SDS011;59793;46.506;6.674;2023-02-15T11:12:38;47.88;;;33.40;;
71916;SDS011;59793;46.506;6.674;2023-02-15T11:15:12;45.80;;;32.45;;
71916;SDS011;59793;46.506;6.674;2023-02-15T11:17:49;40.50;;;30.27;;
71916;SDS011;59793;46.506;6.674;2023-02-15T11:22:54;47.97;;;33.38;;
71916;SDS011;59793;46.506;6.674;2023-02-15T11:25:30;45.05;;;31.17;;
71916;SDS011;59793;46.506;6.674;2023-02-15T11:27:58;48.13;;;34.67;;
71916;SDS011;59793;46.506;6.674;2023-02-15T11:30:30;44.08;;;31.33;;
71916;SDS011;59793;46.506;6.674;2023-02-15T11:33:20;46.00;;;33.25;;
71916;SDS011;59793;46.506;6.674;2023-02-15T11:35:59;46.90;;;31.10;;
71916;SDS011;59793;46.506;6.674;2023-02-15T11:38:32;43.42;;;32.00;;
71916;SDS011;59793;46.506;6.674;2023-02-15T11:46:07;46.53;;;32.78;;
71916;SDS011;59793;46.506;6.674;2023-02-15T11:48:36;46.35;;;33.78;;
71916;SDS011;59793;46.506;6.674;2023-02-15T11:51:02;41.30;;;29.50;;
71916;SDS011;59793;46.506;6.674;2023-02-15T11:53:28;45.85;;;31.13;;
71916;SDS011;59793;46.506;6.674;2023-02-15T11:55:58;46.78;;;33.33;;
71916;SDS011;59793;46.506;6.674;2023-02-15T11:58:40;42.10;;;28.73;;
71916;SDS011;59793;46.506;6.674;2023-02-15T12:03:55;49.40;;;34.00;;
71916;SDS011;59793;46.506;6.674;2023-02-15T12:06:26;44.90;;;32.05;;
71916;SDS011;59793;46.506;6.674;2023-02-15T12:09:38;44.92;;;33.15;;
71916;SDS011;59793;46.506;6.674;2023-02-15T12:12:20;39.47;;;29.50;;
71916;SDS011;59793;46.506;6.674;2023-02-15T12:14:52;46.95;;;31.50;;
71916;SDS011;59793;46.506;6.674;2023-02-15T12:17:26;39.65;;;30.48;;
71916;SDS011;59793;46.506;6.674;2023-02-15T12:19:57;44.63;;;30.73;;
71916;SDS011;59793;46.506;6.674;2023-02-15T12:22:30;43.25;;;31.58;;
71916;SDS011;59793;46.506;6.674;2023-02-15T12:25:41;45.92;;;31.92;;
71916;SDS011;59793;46.506;6.674;2023-02-15T12:27:50;40.72;;;31.17;;
71916;SDS011;59793;46.506;6.674;2023-02-15T12:30:29;44.93;;;32.20;;
71916;SDS011;59793;46.506;6.674;2023-02-15T12:35:31;45.55;;;34.80;;
71916;SDS011;59793;46.506;6.674;2023-02-15T12:38:19;45.58;;;31.70;;
71916;SDS011;59793;46.506;6.674;2023-02-15T12:41:24;43.85;;;32.00;;
71916;SDS011;59793;46.506;6.674;2023-02-15T12:44:02;45.92;;;33.33;;
71916;SDS011;59793;46.506;6.674;2023-02-15T12:49:42;46.67;;;33.25;;
71916;SDS011;59793;46.506;6.674;2023-02-15T12:54:42;42.65;;;28.95;;
71916;SDS011;59793;46.506;6.674;2023-02-15T12:59:51;37.65;;;27.23;;
71916;SDS011;59793;46.506;6.674;2023-02-15T13:05:04;39.97;;;29.63;;
71916;SDS011;59793;46.506;6.674;2023-02-15T13:07:44;39.20;;;26.58;;
71916;SDS011;59793;46.506;6.674;2023-02-15T13:10:21;40.38;;;29.95;;
71916;SDS011;59793;46.506;6.674;2023-02-15T13:12:56;42.83;;;28.75;;
71916;SDS011;59793;46.506;6.674;2023-02-15T13:15:27;48.15;;;30.83;;
71916;SDS011;59793;46.506;6.674;2023-02-15T13:17:57;42.63;;;30.88;;
71916;SDS011;59793;46.506;6.674;2023-02-15T13:20:24;44.40;;;32.10;;
71916;SDS011;59793;46.506;6.674;2023-02-15T13:23:00;40.25;;;31.38;;
71916;SDS011;59793;46.506;6.674;2023-02-15T13:25:31;39.10;;;29.83;;
71916;SDS011;59793;46.506;6.674;2023-02-15T13:28:05;41.67;;;29.67;;
71916;SDS011;59793;46.506;6.674;2023-02-15T13:30:36;43.70;;;30.83;;
71916;SDS011;59793;46.506;6.674;2023-02-15T13:33:19;41.65;;;29.58;;
71916;SDS011;59793;46.506;6.674;2023-02-15T13:41:27;35.47;;;26.73;;
71916;SDS011;59793;46.506;6.674;2023-02-15T14:06:35;41.83;;;30.58;;
71916;SDS011;59793;46.506;6.674;2023-02-15T14:30:20;42.58;;;31.20;;
71916;SDS011;59793;46.506;6.674;2023-02-15T14:32:48;41.33;;;31.95;;
71916;SDS011;59793;46.506;6.674;2023-02-15T14:35:18;40.25;;;31.05;;
71916;SDS011;59793;46.506;6.674;2023-02-15T14:37:49;38.65;;;28.40;;
71916;SDS011;59793;46.506;6.674;2023-02-15T14:48:58;42.97;;;32.08;;
71916;SDS011;59793;46.506;6.674;2023-02-15T14:56:40;45.88;;;32.95;;
71916;SDS011;59793;46.506;6.674;2023-02-15T14:59:19;49.63;;;36.63;;
71916;SDS011;59793;46.506;6.674;2023-02-15T15:01:57;45.42;;;33.35;;
71916;SDS011;59793;46.506;6.674;2023-02-15T15:04:52;46.53;;;35.63;;
71916;SDS011;59793;46.506;6.674;2023-02-15T15:07:36;51.35;;;37.40;;
71916;SDS011;59793;46.506;6.674;2023-02-15T15:12:45;47.70;;;35.83;;
71916;SDS011;59793;46.506;6.674;2023-02-15T15:25:49;51.55;;;39.78;;
71916;SDS011;59793;46.506;6.674;2023-02-15T15:28:52;54.58;;;38.40;;
71916;SDS011;59793;46.506;6.674;2023-02-15T15:34:34;53.35;;;39.85;;
71916;SDS011;59793;46.506;6.674;2023-02-15T15:48:51;57.58;;;40.97;;
71916;SDS011;59793;46.506;6.674;2023-02-15T15:51:29;57.87;;;39.10;;
71916;SDS011;59793;46.506;6.674;2023-02-15T15:53:56;52.72;;;38.92;;
71916;SDS011;59793;46.506;6.674;2023-02-15T15:56:23;60.30;;;42.03;;
71916;SDS011;59793;46.506;6.674;2023-02-15T15:58:54;62.08;;;42.92;;
71916;SDS011;59793;46.506;6.674;2023-02-15T16:01:29;54.88;;;41.67;;
71916;SDS011;59793;46.506;6.674;2023-02-15T16:03:57;56.72;;;40.78;;
71916;SDS011;59793;46.506;6.674;2023-02-15T16:06:31;58.15;;;41.13;;
71916;SDS011;59793;46.506;6.674;2023-02-15T16:08:57;61.92;;;42.80;;
71916;SDS011;59793;46.506;6.674;2023-02-15T16:11:34;62.47;;;40.78;;
71916;SDS011;59793;46.506;6.674;2023-02-15T16:14:00;63.47;;;41.50;;
71916;SDS011;59793;46.506;6.674;2023-02-15T16:16:26;58.27;;;41.27;;
71916;SDS011;59793;46.506;6.674;2023-02-15T16:18:53;54.75;;;37.22;;
71916;SDS011;59793;46.506;6.674;2023-02-15T16:21:23;60.88;;;42.63;;
71916;SDS011;59793;46.506;6.674;2023-02-15T16:26:35;43.83;;;30.40;;
71916;SDS011;59793;46.506;6.674;2023-02-15T16:29:27;55.13;;;36.55;;
71916;SDS011;59793;46.506;6.674;2023-02-15T16:32:00;57.38;;;40.67;;
71916;SDS011;59793;46.506;6.674;2023-02-15T16:34:29;54.03;;;38.78;;
71916;SDS011;59793;46.506;6.674;2023-02-15T16:37:13;61.10;;;40.15;;
71916;SDS011;59793;46.506;6.674;2023-02-15T16:39:40;53.92;;;39.00;;
71916;SDS011;59793;46.506;6.674;2023-02-15T16:42:07;59.92;;;40.25;;
71916;SDS011;59793;46.506;6.674;2023-02-15T16:44:34;56.67;;;38.85;;
71916;SDS011;59793;46.506;6.674;2023-02-15T16:46:59;58.27;;;37.93;;
71916;SDS011;59793;46.506;6.674;2023-02-15T16:49:26;60.90;;;40.72;;
71916;SDS011;59793;46.506;6.674;2023-02-15T16:51:57;57.70;;;38.35;;
71916;SDS011;59793;46.506;6.674;2023-02-15T16:54:26;49.72;;;34.40;;
71916;SDS011;59793;46.506;6.674;2023-02-15T16:56:53;52.33;;;33.33;;
71916;SDS011;59793;46.506;6.674;2023-02-15T16:59:31;50.70;;;30.88;;
71916;SDS011;59793;46.506;6.674;2023-02-15T17:01:59;48.83;;;31.95;;
71916;SDS011;59793;46.506;6.674;2023-02-15T17:04:29;50.30;;;33.42;;
71916;SDS011;59793;46.506;6.674;2023-02-15T17:09:52;53.53;;;35.05;;
71916;SDS011;59793;46.506;6.674;2023-02-15T17:15:28;44.97;;;31.23;;
71916;SDS011;59793;46.506;6.674;2023-02-15T17:18:03;53.95;;;33.25;;
71916;SDS011;59793;46.506;6.674;2023-02-15T17:20:29;48.92;;;30.65;;
71916;SDS011;59793;46.506;6.674;2023-02-15T17:22:55;53.28;;;34.63;;
71916;SDS011;59793;46.506;6.674;2023-02-15T17:25:39;34.75;;;23.33;;
71916;SDS011;59793;46.506;6.674;2023-02-15T17:28:15;50.08;;;31.30;;
71916;SDS011;59793;46.506;6.674;2023-02-15T17:30:43;45.80;;;29.50;;
71916;SDS011;59793;46.506;6.674;2023-02-15T17:36:02;48.55;;;28.60;;
71916;SDS011;59793;46.506;6.674;2023-02-15T17:38:40;47.17;;;29.02;;
71916;SDS011;59793;46.506;6.674;2023-02-15T17:43:49;44.47;;;28.65;;
71916;SDS011;59793;46.506;6.674;2023-02-15T17:46:15;41.10;;;25.60;;
71916;SDS011;59793;46.506;6.674;2023-02-15T17:48:45;41.00;;;25.27;;
71916;SDS011;59793;46.506;6.674;2023-02-15T17:51:14;39.72;;;24.83;;
71916;SDS011;59793;46.506;6.674;2023-02-15T17:53:41;42.35;;;22.65;;
71916;SDS011;59793;46.506;6.674;2023-02-15T17:56:30;42.60;;;25.95;;
71916;SDS011;59793;46.506;6.674;2023-02-15T17:59:00;45.45;;;23.13;;
71916;SDS011;59793;46.506;6.674;2023-02-15T18:01:25;47.38;;;23.85;;
71916;SDS011;59793;46.506;6.674;2023-02-15T18:04:13;41.78;;;24.73;;
71916;SDS011;59793;46.506;6.674;2023-02-15T18:06:58;46.17;;;25.88;;
71916;SDS011;59793;46.506;6.674;2023-02-15T18:09:43;38.95;;;23.50;;
71916;SDS011;59793;46.506;6.674;2023-02-15T18:12:28;41.50;;;23.52;;
71916;SDS011;59793;46.506;6.674;2023-02-15T18:14:56;36.13;;;19.92;;
71916;SDS011;59793;46.506;6.674;2023-02-15T18:17:36;33.50;;;19.13;;
71916;SDS011;59793;46.506;6.674;2023-02-15T18:25:13;31.55;;;16.45;;
71916;SDS011;59793;46.506;6.674;2023-02-15T18:27:40;29.40;;;15.98;;